Time;durP1;ratioP1;P1;durP2;ratioP2;P2;SDS_P1;SDS_P2;PMS_P1;PMS_P2;Temp;Humidity;BMP_temperature;BMP_pressure;BME280_temperature;BME280_humidity;BME280_pressure;Samples;Min_cycle;Max_cycle;Signal;HPM_P1;HPM_P2
2021/08/29 00:00:36;;;;;;;4.42;2.40;;;;;;;18.20;100.00;98885.00;1680940;83;21041;-66
2021/08/29 00:03:05;;;;;;;3.83;2.62;;;;;;;18.18;100.00;98880.66;1714609;83;20947;-66
2021/08/29 00:05:34;;;;;;;3.08;2.52;;;;;;;18.14;100.00;98869.70;1681673;84;21272;-66
2021/08/29 00:08:03;;;;;;;2.60;2.37;;;;;;;18.11;100.00;98869.83;1708134;83;21042;-66
2021/08/29 00:10:32;;;;;;;3.00;2.47;;;;;;;18.11;100.00;98866.70;1714834;83;21483;-66
2021/08/29 00:13:01;;;;;;;2.27;1.98;;;;;;;18.10;100.00;98854.75;1706230;83;21012;-66
2021/08/29 00:15:30;;;;;;;3.20;2.58;;;;;;;18.07;100.00;98849.08;1694027;83;20974;-66
2021/08/29 00:17:58;;;;;;;2.62;2.17;;;;;;;18.05;100.00;98848.27;1674730;85;21085;-66
2021/08/29 00:20:27;;;;;;;2.42;2.10;;;;;;;18.01;100.00;98842.66;1685397;85;20948;-67
2021/08/29 00:22:57;;;;;;;5.70;2.47;;;;;;;17.98;100.00;98840.11;1712273;83;20944;-66
2021/08/29 00:25:27;;;;;;;4.70;2.45;;;;;;;17.96;100.00;98837.94;1678542;84;20988;-66
2021/08/29 00:27:56;;;;;;;4.35;2.50;;;;;;;17.93;100.00;98836.73;1727393;82;21505;-66
2021/08/29 00:30:25;;;;;;;4.22;2.40;;;;;;;17.91;100.00;98833.25;1731102;82;21099;-67
2021/08/29 00:32:53;;;;;;;4.72;2.35;;;;;;;17.89;100.00;98827.98;1724423;82;21429;-66
2021/08/29 00:35:22;;;;;;;3.20;2.10;;;;;;;17.87;100.00;98821.84;1704407;83;20977;-66
2021/08/29 00:37:50;;;;;;;2.40;2.20;;;;;;;17.89;100.00;98833.32;1708338;83;21040;-66
2021/08/29 00:40:21;;;;;;;3.83;2.08;;;;;;;17.91;100.00;98835.92;1686913;83;21161;-66
2021/08/29 00:42:53;;;;;;;2.52;2.30;;;;;;;17.90;100.00;98831.52;1704360;83;21548;-66
2021/08/29 00:45:22;;;;;;;3.33;2.27;;;;;;;17.90;100.00;98834.19;1709004;82;20973;-67
2021/08/29 00:47:51;;;;;;;3.42;2.40;;;;;;;17.90;100.00;98842.19;1710930;83;21078;-67
2021/08/29 00:50:20;;;;;;;4.50;2.30;;;;;;;17.88;100.00;98839.58;1716214;82;21141;-66
2021/08/29 00:52:48;;;;;;;2.67;1.92;;;;;;;17.86;100.00;98834.78;1706257;82;21445;-65
2021/08/29 00:55:18;;;;;;;4.47;2.37;;;;;;;17.84;100.00;98828.63;1678104;83;21100;-65
2021/08/29 00:57:48;;;;;;;4.58;2.62;;;;;;;17.83;100.00;98818.02;1711976;82;20893;-65
2021/08/29 01:00:19;;;;;;;2.87;2.35;;;;;;;17.79;100.00;98808.41;1712619;82;21452;-65
2021/08/29 01:02:49;;;;;;;2.75;2.10;;;;;;;17.78;100.00;98800.00;1712845;82;20972;-65
2021/08/29 01:05:38;;;;;;;2.95;2.27;;;;;;;17.77;100.00;98797.80;1675964;82;20935;-66
2021/08/29 01:08:24;;;;;;;4.30;2.22;;;;;;;17.79;100.00;98797.73;1713022;82;21525;-65
2021/08/29 01:11:05;;;;;;;5.85;2.00;;;;;;;17.79;100.00;98788.40;1716304;82;20975;-65
2021/08/29 01:13:39;;;;;;;4.62;2.20;;;;;;;17.77;100.00;98795.13;1632073;87;21453;-66
2021/08/29 01:16:09;;;;;;;4.40;2.17;;;;;;;17.75;100.00;98792.13;1674336;85;21431;-68
2021/08/29 01:18:41;;;;;;;3.65;2.20;;;;;;;17.72;100.00;98787.78;1706458;82;20914;-68
2021/08/29 01:21:16;;;;;;;2.25;2.05;;;;;;;17.71;100.00;98790.05;1706962;83;21496;-68
2021/08/29 01:23:46;;;;;;;4.33;2.50;;;;;;;17.70;100.00;98798.11;1710130;82;21025;-69
2021/08/29 01:26:45;;;;;;;3.85;2.87;;;;;;;17.68;100.00;98787.50;1710085;82;28686;-69
2021/08/29 01:29:16;;;;;;;7.20;2.90;;;;;;;17.63;100.00;98786.33;1710223;82;21053;-67
2021/08/29 01:31:44;;;;;;;9.23;3.45;;;;;;;17.60;100.00;98785.58;1708665;82;20989;-65
2021/08/29 01:34:16;;;;;;;10.85;3.58;;;;;;;17.57;100.00;98783.91;1676361;83;21145;-66
2021/08/29 01:36:49;;;;;;;9.15;3.05;;;;;;;17.58;100.00;98782.11;1709617;82;21037;-65
2021/08/29 01:39:21;;;;;;;8.78;2.95;;;;;;;17.55;100.00;98780.89;1673789;84;21117;-65
2021/08/29 01:41:52;;;;;;;4.33;2.58;;;;;;;17.53;100.00;98787.63;1645048;85;21560;-65
2021/08/29 01:44:21;;;;;;;10.03;3.08;;;;;;;17.50;100.00;98780.18;1722199;82;21532;-65
2021/08/29 01:46:50;;;;;;;5.95;2.85;;;;;;;17.46;100.00;98774.10;1732585;82;21196;-66
2021/08/29 01:49:19;;;;;;;4.17;3.12;;;;;;;17.41;100.00;98772.55;1678097;85;20951;-66
2021/08/29 01:51:50;;;;;;;5.85;2.62;;;;;;;17.36;100.00;98771.40;1738394;82;21500;-66
2021/08/29 01:54:24;;;;;;;5.85;2.80;;;;;;;17.31;100.00;98772.91;1720299;82;21532;-66
2021/08/29 01:57:11;;;;;;;6.05;3.00;;;;;;;17.30;100.00;98763.18;1710635;82;21100;-65
2021/08/29 01:59:38;;;;;;;5.87;3.02;;;;;;;17.28;100.00;98757.50;1709641;83;21096;-66
2021/08/29 02:02:07;;;;;;;5.87;2.98;;;;;;;17.25;100.00;98752.30;1708487;83;20895;-66
2021/08/29 02:04:36;;;;;;;7.53;3.60;;;;;;;17.22;100.00;98747.95;1680082;84;21006;-66
2021/08/29 02:07:40;;;;;;;9.68;4.25;;;;;;;17.19;100.00;98749.41;1677247;84;21568;-67
2021/08/29 02:10:15;;;;;;;11.78;3.37;;;;;;;17.14;100.00;98750.52;1694014;84;21515;-65
2021/08/29 02:13:07;;;;;;;14.05;4.40;;;;;;;17.10;100.00;98751.09;1681549;84;21147;-65
2021/08/29 02:15:50;;;;;;;8.75;3.80;;;;;;;17.10;100.00;98744.44;1708887;83;21421;-65
2021/08/29 02:18:19;;;;;;;13.40;4.20;;;;;;;17.07;100.00;98751.22;1683819;83;20943;-63
2021/08/29 02:20:50;;;;;;;11.10;4.20;;;;;;;17.08;100.00;98758.75;1708499;83;20886;-64
2021/08/29 02:23:18;;;;;;;10.70;4.17;;;;;;;17.08;100.00;98762.75;1708575;84;20930;-64
2021/08/29 02:25:47;;;;;;;13.60;4.55;;;;;;;17.07;100.00;98758.34;1708352;83;22254;-65
2021/08/29 02:28:16;;;;;;;6.45;3.52;;;;;;;17.07;100.00;98757.88;1665079;84;20883;-64
2021/08/29 02:30:45;;;;;;;6.95;3.70;;;;;;;17.07;100.00;98755.22;1705206;83;20989;-65
2021/08/29 02:33:16;;;;;;;7.87;3.85;;;;;;;17.08;100.00;98751.63;1708095;82;21441;-64
2021/08/29 02:35:46;;;;;;;4.20;3.58;;;;;;;17.07;100.00;98758.34;1702538;83;20926;-64
2021/08/29 02:38:16;;;;;;;6.67;4.00;;;;;;;17.07;100.00;98750.34;1703235;83;21119;-65
2021/08/29 02:40:45;;;;;;;6.05;4.17;;;;;;;17.06;100.00;98732.16;1708349;83;20940;-64
2021/08/29 02:43:14;;;;;;;8.75;4.30;;;;;;;17.04;100.00;98727.36;1699539;83;21566;-65
2021/08/29 02:45:44;;;;;;;7.17;4.78;;;;;;;17.03;100.00;98730.05;1734571;82;21481;-65
2021/08/29 02:48:12;;;;;;;6.28;4.30;;;;;;;17.04;100.00;98731.35;1690754;83;20952;-65
2021/08/29 02:50:46;;;;;;;8.95;4.70;;;;;;;17.03;100.00;98734.95;1731409;82;21053;-65
2021/08/29 02:53:17;;;;;;;6.03;4.35;;;;;;;17.00;100.00;98732.36;1706075;82;21429;-65
2021/08/29 02:55:47;;;;;;;7.08;5.03;;;;;;;16.98;100.00;98723.09;1731883;82;20946;-65
2021/08/29 02:58:15;;;;;;;11.12;6.00;;;;;;;16.97;100.00;98716.03;1727384;82;20939;-65
2021/08/29 03:00:52;;;;;;;11.48;4.90;;;;;;;16.95;100.00;98715.23;1727093;82;21541;-66
2021/08/29 03:03:29;;;;;;;8.48;4.55;;;;;;;16.94;100.00;98711.29;1725463;82;22469;-65
2021/08/29 03:05:57;;;;;;;10.43;5.25;;;;;;;16.98;100.00;98719.56;1732147;82;20879;-65
2021/08/29 03:08:27;;;;;;;15.13;5.75;;;;;;;16.98;100.00;98715.57;1731896;82;20951;-65
2021/08/29 03:10:57;;;;;;;13.85;5.08;;;;;;;16.98;100.00;98707.11;1731670;82;20942;-66
2021/08/29 03:13:27;;;;;;;13.75;4.92;;;;;;;16.99;100.00;98706.65;1729827;82;21006;-61
2021/08/29 03:15:56;;;;;;;14.37;5.77;;;;;;;16.99;100.00;98707.52;1730258;82;21204;-62
2021/08/29 03:18:30;;;;;;;10.70;5.12;;;;;;;17.01;100.00;98711.45;1725762;82;21002;-63
2021/08/29 03:21:00;;;;;;;12.60;5.30;;;;;;;17.03;100.00;98711.39;1731455;82;21081;-62
2021/08/29 03:23:29;;;;;;;12.82;5.10;;;;;;;17.08;100.00;98716.11;1701682;82;20975;-63
2021/08/29 03:25:59;;;;;;;11.90;5.35;;;;;;;17.11;100.00;98719.98;1699987;83;20958;-63
2021/08/29 03:28:28;;;;;;;14.68;5.25;;;;;;;17.13;100.00;98725.66;1702398;83;21410;-63
2021/08/29 03:30:56;;;;;;;11.88;5.17;;;;;;;17.16;100.00;98728.20;1677507;84;21415;-62
2021/08/29 03:33:26;;;;;;;11.22;4.78;;;;;;;17.19;100.00;98723.22;1701165;82;21576;-63
2021/08/29 03:35:54;;;;;;;7.50;4.85;;;;;;;17.21;100.00;98729.36;1703921;83;20955;-63
2021/08/29 03:38:23;;;;;;;6.95;4.58;;;;;;;17.23;100.00;98729.70;1696006;83;21037;-62
2021/08/29 03:40:51;;;;;;;8.65;4.42;;;;;;;17.27;100.00;98726.45;1694382;84;21137;-62
2021/08/29 03:43:20;;;;;;;9.08;4.53;;;;;;;17.31;100.00;98716.93;1694007;84;20959;-62
2021/08/29 03:45:49;;;;;;;8.53;4.40;;;;;;;17.34;100.00;98717.73;1696185;83;21479;-62
2021/08/29 03:48:17;;;;;;;7.10;4.25;;;;;;;17.35;100.00;98720.80;1694085;84;20967;-62
2021/08/29 03:50:47;;;;;;;13.98;4.22;;;;;;;17.35;100.00;98716.34;1672730;84;21453;-62
2021/08/29 03:53:16;;;;;;;13.45;4.55;;;;;;;17.37;100.00;98718.48;1724651;83;21560;-62
2021/08/29 03:55:45;;;;;;;8.45;4.62;;;;;;;17.37;100.00;98710.95;1696307;84;20987;-62
2021/08/29 03:58:13;;;;;;;10.30;4.15;;;;;;;17.38;100.00;98720.22;1694279;83;20967;-62
2021/08/29 04:00:44;;;;;;;6.35;3.72;;;;;;;17.42;100.00;98710.30;1693290;83;20987;-61
2021/08/29 04:03:14;;;;;;;8.75;3.80;;;;;;;17.44;100.00;98708.44;1714985;83;20998;-61
2021/08/29 04:06:01;;;;;;;9.68;3.98;;;;;;;17.45;100.00;98708.38;1700894;82;21149;-61
2021/08/29 04:08:36;;;;;;;4.12;3.30;;;;;;;17.46;100.00;98699.91;1693439;84;20990;-62
2021/08/29 04:11:05;;;;;;;3.98;3.58;;;;;;;17.46;100.00;98699.91;1700164;84;21003;-61
2021/08/29 04:13:36;;;;;;;6.35;3.98;;;;;;;17.47;100.00;98699.84;1697757;83;21479;-61
2021/08/29 04:16:08;;;;;;;4.97;3.47;;;;;;;17.47;100.00;98695.84;1699200;83;21547;-62
2021/08/29 04:18:43;;;;;;;5.22;3.60;;;;;;;17.51;100.00;98691.28;1731099;83;21398;-62
2021/08/29 04:21:13;;;;;;;4.00;3.40;;;;;;;17.54;100.00;98689.36;1698613;82;21552;-62
2021/08/29 04:23:42;;;;;;;4.42;3.50;;;;;;;17.58;100.00;98684.77;1693561;84;21604;-62
2021/08/29 04:26:11;;;;;;;4.97;3.75;;;;;;;17.62;100.00;98675.23;1693793;84;21077;-61
2021/08/29 04:28:39;;;;;;;6.87;3.50;;;;;;;17.65;100.00;98671.57;1656291;84;21447;-61
2021/08/29 04:31:17;;;;;;;4.58;3.83;;;;;;;17.70;100.00;98678.08;1695255;84;21097;-62
2021/08/29 04:33:47;;;;;;;6.20;3.90;;;;;;;17.73;100.00;98673.95;1693405;84;21010;-63
2021/08/29 04:36:35;;;;;;;5.20;3.47;;;;;;;17.77;100.00;98663.55;1701075;84;20994;-63
2021/08/29 04:39:07;;;;;;;9.65;3.55;;;;;;;17.82;100.00;98658.41;1672652;82;21029;-61
2021/08/29 04:41:37;;;;;;;8.23;3.60;;;;;;;17.88;100.00;98655.94;1671346;84;21502;-61
2021/08/29 04:44:07;;;;;;;5.90;3.65;;;;;;;17.96;100.00;98657.81;1733882;81;22031;-67
2021/08/29 04:46:36;;;;;;;3.87;3.00;;;;;;;18.02;100.00;98652.70;1734180;82;20925;-65
2021/08/29 04:49:04;;;;;;;5.83;3.35;;;;;;;18.08;100.00;98655.97;1733822;82;20938;-65
2021/08/29 04:51:33;;;;;;;5.95;3.65;;;;;;;18.15;100.00;98642.74;1700892;83;21042;-64
2021/08/29 04:54:01;;;;;;;10.23;3.80;;;;;;;18.20;100.00;98635.39;1701128;84;21556;-64
2021/08/29 04:56:30;;;;;;;7.30;4.40;;;;;;;18.24;100.00;98632.12;1701546;84;21831;-64
2021/08/29 04:58:59;;;;;;;7.47;3.47;;;;;;;18.28;100.00;98623.50;1733722;81;21513;-64
2021/08/29 05:01:31;;;;;;;9.33;3.77;;;;;;;18.31;100.00;98617.55;1701459;83;20951;-64
2021/08/29 05:03:59;;;;;;;7.08;3.62;;;;;;;18.36;100.00;98615.53;1701262;83;20910;-64
2021/08/29 05:06:27;;;;;;;8.00;3.95;;;;;;;18.40;100.00;98613.59;1701471;84;21467;-64
2021/08/29 05:08:55;;;;;;;6.85;3.65;;;;;;;18.41;100.00;98617.99;1701618;82;21797;-64
2021/08/29 05:11:23;;;;;;;4.17;3.12;;;;;;;18.43;100.00;98606.77;1697461;84;21033;-65
2021/08/29 05:13:53;;;;;;;5.12;3.42;;;;;;;18.44;100.00;98597.82;1734044;82;20976;-64
2021/08/29 05:16:23;;;;;;;4.33;3.40;;;;;;;18.46;100.00;98595.51;1733748;81;21424;-65
2021/08/29 05:18:52;;;;;;;5.05;3.47;;;;;;;18.50;100.00;98594.42;1734831;81;20958;-64
2021/08/29 05:21:21;;;;;;;5.40;3.33;;;;;;;18.55;100.00;98591.54;1732018;81;21835;-64
2021/08/29 05:24:05;;;;;;;3.83;3.05;;;;;;;18.62;100.00;98593.02;1732464;82;20895;-66
2021/08/29 05:26:46;;;;;;;5.30;3.45;;;;;;;18.70;100.00;98577.95;1734319;82;21254;-66
2021/08/29 05:29:16;;;;;;;9.20;3.40;;;;;;;18.78;100.00;98573.10;1734096;82;21065;-66
2021/08/29 05:31:44;;;;;;;5.37;3.52;;;;;;;18.86;100.00;98570.92;1733817;82;20966;-67
2021/08/29 05:34:14;;;;;;;4.45;3.40;;;;;;;18.93;100.00;98560.36;1732769;82;21106;-66
2021/08/29 05:36:42;;;;;;;4.97;3.80;;;;;;;19.00;100.00;98557.78;1725750;82;20981;-66
2021/08/29 05:39:10;;;;;;;7.17;3.60;;;;;;;19.04;100.00;98552.67;1724707;82;21008;-66
2021/08/29 05:41:39;;;;;;;4.67;3.10;;;;;;;19.07;100.00;98547.17;1695534;83;21468;-64
2021/08/29 05:44:12;;;;;;;8.45;3.55;;;;;;;19.08;100.00;98536.01;1690518;83;21048;-66
2021/08/29 05:46:40;;;;;;;5.72;3.55;;;;;;;19.10;100.00;98530.11;1694324;84;21112;-66
2021/08/29 05:49:08;;;;;;;5.45;3.50;;;;;;;19.13;100.00;98524.61;1695349;84;20900;-66
2021/08/29 05:51:37;;;;;;;6.92;3.58;;;;;;;19.20;100.00;98526.03;1693648;83;21536;-66
2021/08/29 05:54:06;;;;;;;6.40;3.42;;;;;;;19.29;100.00;98516.67;1692796;83;21651;-67
2021/08/29 05:56:33;;;;;;;5.95;3.70;;;;;;;19.36;100.00;98514.94;1694222;83;21070;-66
2021/08/29 05:59:03;;;;;;;7.15;4.17;;;;;;;19.45;100.00;98514.97;1693586;84;21136;-67
2021/08/29 06:01:31;;;;;;;11.60;4.72;;;;;;;19.54;100.00;98514.52;1696390;83;20890;-64
2021/08/29 06:03:59;;;;;;;10.98;4.72;;;;;;;19.61;100.00;98497.67;1701770;83;20996;-67
2021/08/29 06:06:37;;;;;;;18.12;5.17;;;;;;;19.69;100.00;98507.02;1691487;84;20964;-67
2021/08/29 06:09:04;;;;;;;10.55;4.42;;;;;;;19.77;100.00;98510.14;1705672;83;20865;-69
2021/08/29 06:11:34;;;;;;;11.97;4.90;;;;;;;19.86;100.00;98513.27;1705965;83;21093;-69
2021/08/29 06:14:05;;;;;;;11.10;4.60;;;;;;;19.93;100.00;98515.57;1705712;83;20975;-69
2021/08/29 06:16:35;;;;;;;6.62;4.28;;;;;;;20.00;100.00;98518.30;1667256;85;21515;-69
2021/08/29 06:19:03;;;;;;;7.08;3.50;;;;;;;20.04;100.00;98525.70;1676745;84;20960;-68
2021/08/29 06:21:31;;;;;;;6.40;3.47;;;;;;;20.05;100.00;98522.94;1676843;84;20940;-65
2021/08/29 06:24:00;;;;;;;5.83;3.83;;;;;;;20.09;100.00;98529.84;1676813;84;21419;-64
2021/08/29 06:26:39;;;;;;;4.00;3.20;;;;;;;20.10;100.00;98526.22;1672807;85;20912;-68
2021/08/29 06:29:24;;;;;;;3.70;3.27;;;;;;;20.13;100.00;98522.52;1639371;86;21077;-64
2021/08/29 06:32:12;;;;;;;4.65;3.55;;;;;;;20.17;100.00;98516.52;1723032;82;21501;-65
2021/08/29 06:34:50;;;;;;;5.17;3.20;;;;;;;20.22;100.00;98519.80;1733507;82;20963;-66
2021/08/29 06:37:41;;;;;;;4.95;3.45;;;;;;;20.25;100.00;98515.14;1732674;81;21151;-66
2021/08/29 06:40:12;;;;;;;4.25;3.27;;;;;;;20.30;100.00;98509.05;1733789;82;21055;-65
2021/08/29 06:42:41;;;;;;;4.17;3.37;;;;;;;20.35;100.00;98502.13;1705245;83;20886;-64
2021/08/29 06:45:27;;;;;;;4.60;3.55;;;;;;;20.38;100.00;98501.96;1706731;83;21093;-62
2021/08/29 06:48:12;;;;;;;4.78;3.40;;;;;;;20.45;100.00;98503.85;1602510;89;21086;-64
2021/08/29 06:50:58;;;;;;;5.10;3.42;;;;;;;20.49;100.00;98500.05;1689835;84;21157;-62
2021/08/29 06:53:31;;;;;;;4.65;3.45;;;;;;;20.53;100.00;98501.13;1668162;84;20938;-62
2021/08/29 06:56:00;;;;;;;5.08;3.37;;;;;;;20.57;100.00;98491.97;1656861;82;20903;-64
2021/08/29 06:58:45;;;;;;;3.85;3.12;;;;;;;20.62;100.00;98495.24;1732977;82;20911;-62
2021/08/29 07:01:13;;;;;;;6.42;3.15;;;;;;;20.69;100.00;98483.22;1734114;82;20942;-62
2021/08/29 07:03:40;;;;;;;4.65;3.30;;;;;;;20.80;100.00;98484.41;1739256;81;21195;-62
2021/08/29 07:06:09;;;;;;;5.22;3.52;;;;;;;20.87;100.00;98481.31;1734383;82;20921;-62
2021/08/29 07:08:55;;;;;;;7.03;3.52;;;;;;;20.96;100.00;98484.80;1734013;81;20966;-64
2021/08/29 07:11:23;;;;;;;4.05;3.42;;;;;;;21.02;100.00;98483.09;1733846;82;20982;-63
2021/08/29 07:14:09;;;;;;;3.35;3.05;;;;;;;21.10;100.00;98485.32;1733974;81;21591;-63
2021/08/29 07:16:37;;;;;;;5.55;3.15;;;;;;;21.15;100.00;98482.36;1701057;84;21188;-64
2021/08/29 07:19:05;;;;;;;4.05;3.37;;;;;;;21.19;100.00;98482.56;1698860;84;20963;-64
2021/08/29 07:21:51;;;;;;;6.28;3.60;;;;;;;21.22;100.00;98473.86;1698011;83;21025;-63
2021/08/29 07:24:39;;;;;;;4.87;3.75;;;;;;;21.26;100.00;98476.77;1733634;82;21013;-62
2021/08/29 07:27:25;;;;;;;5.25;4.00;;;;;;;21.28;100.00;98469.50;1732967;82;21049;-63
2021/08/29 07:30:13;;;;;;;4.15;3.67;;;;;;;21.30;100.00;98460.91;1732225;81;21158;-64
2021/08/29 07:32:57;;;;;;;6.08;4.20;;;;;;;21.32;100.00;98459.48;1731969;81;20885;-64
2021/08/29 07:35:26;;;;;;;8.98;3.92;;;;;;;21.32;100.00;98459.00;1733600;81;20919;-63
2021/08/29 07:38:06;;;;;;;4.55;3.42;;;;;;;21.35;100.00;98461.50;1705388;81;21012;-64
2021/08/29 07:40:35;;;;;;;6.50;3.52;;;;;;;21.41;100.00;98459.39;1693834;83;21160;-64
2021/08/29 07:43:03;;;;;;;7.55;3.80;;;;;;;21.43;100.00;98459.69;1694185;84;21118;-63
2021/08/29 07:45:32;;;;;;;4.67;4.00;;;;;;;21.45;100.00;98458.25;1693120;83;20943;-63
2021/08/29 07:48:01;;;;;;;6.20;3.72;;;;;;;21.46;100.00;98457.30;1691462;83;21690;-64
2021/08/29 07:50:30;;;;;;;4.10;3.52;;;;;;;21.48;100.00;98454.04;1693907;83;21478;-63
2021/08/29 07:52:58;;;;;;;5.22;3.72;;;;;;;21.50;100.00;98458.35;1697480;83;21018;-63
2021/08/29 07:55:44;;;;;;;4.90;3.90;;;;;;;21.50;100.00;98451.64;1697848;83;23080;-62
2021/08/29 07:58:13;;;;;;;6.28;4.47;;;;;;;21.52;100.00;98450.20;1654936;85;21010;-63
2021/08/29 08:00:42;;;;;;;6.08;4.25;;;;;;;21.52;100.00;98444.84;1725850;82;20951;-62
2021/08/29 08:03:23;;;;;;;5.03;3.92;;;;;;;21.52;100.00;98438.13;1723846;81;21058;-63
2021/08/29 08:06:12;;;;;;;4.87;4.08;;;;;;;21.53;100.00;98438.03;1696522;83;21073;-64
2021/08/29 08:09:00;;;;;;;5.47;4.37;;;;;;;21.56;100.00;98432.95;1691535;83;21533;-62
2021/08/29 08:11:27;;;;;;;5.20;4.60;;;;;;;21.56;100.00;98427.11;1698392;82;20955;-61
2021/08/29 08:13:56;;;;;;;5.35;4.50;;;;;;;21.57;100.00;98421.27;1734420;82;21545;-63
2021/08/29 08:16:23;;;;;;;7.10;4.90;;;;;;;21.55;100.00;98412.45;1724718;81;20995;-62
2021/08/29 08:18:52;;;;;;;21.17;4.97;;;;;;;21.54;100.00;98408.91;1726365;82;22033;-62
2021/08/29 08:21:21;;;;;;;9.05;4.90;;;;;;;21.51;100.00;98401.05;1726091;83;21167;-65
2021/08/29 08:24:09;;;;;;;7.45;4.53;;;;;;;21.50;100.00;98397.98;1727403;81;20962;-62
2021/08/29 08:26:39;;;;;;;5.03;4.25;;;;;;;21.45;100.00;98401.91;1725349;82;21423;-62
2021/08/29 08:29:26;;;;;;;4.97;4.42;;;;;;;21.44;100.00;98406.89;1726798;82;21516;-62
2021/08/29 08:32:12;;;;;;;6.12;4.58;;;;;;;21.44;100.00;98398.36;1730699;81;20919;-63
2021/08/29 08:34:58;;;;;;;6.28;4.58;;;;;;;21.42;100.00;98404.30;1718391;82;21466;-62
2021/08/29 08:37:37;;;;;;;7.08;5.05;;;;;;;21.42;100.00;98406.98;1694415;82;21021;-63
2021/08/29 08:40:12;;;;;;;146.20;7.22;;;;;;;21.42;100.00;98409.67;1730746;82;20934;-62
2021/08/29 08:42:49;;;;;;;12.45;5.30;;;;;;;21.38;100.00;98430.07;1728682;82;21466;-62
2021/08/29 08:45:36;;;;;;;6.15;4.65;;;;;;;21.29;100.00;98443.09;1726170;82;21476;-62
2021/08/29 08:48:22;;;;;;;11.95;5.37;;;;;;;21.22;100.00;98495.80;1706716;82;21168;-67
2021/08/29 08:50:55;;;;;;;19.32;5.80;;;;;;;21.11;100.00;98518.36;1720020;82;20982;-68
2021/08/29 08:53:40;;;;;;;8.70;5.08;;;;;;;20.90;100.00;98517.33;1729086;81;21010;-62
2021/08/29 08:56:27;;;;;;;14.70;5.12;;;;;;;20.64;100.00;98521.48;1725903;81;20969;-66
2021/08/29 08:58:59;;;;;;;9.30;4.92;;;;;;;20.47;100.00;98520.70;1719671;81;21446;-65
2021/08/29 09:01:28;;;;;;;8.10;4.75;;;;;;;20.43;100.00;98513.31;1742116;82;26934;-61
2021/08/29 09:04:02;;;;;;;7.90;5.12;;;;;;;20.43;100.00;98515.52;1694898;81;20876;-63
2021/08/29 09:06:34;;;;;;;6.83;4.42;;;;;;;20.42;100.00;98525.84;1723745;81;20947;-63
2021/08/29 09:09:03;;;;;;;5.80;4.60;;;;;;;20.42;100.00;98523.17;1732228;81;20997;-65
2021/08/29 09:11:33;;;;;;;5.15;4.28;;;;;;;20.44;100.00;98516.38;1726186;81;21574;-65
2021/08/29 09:14:01;;;;;;;8.33;4.50;;;;;;;20.47;100.00;98514.01;1726924;83;21124;-62
2021/08/29 09:16:30;;;;;;;6.03;4.70;;;;;;;20.53;100.00;98523.91;1726677;81;20934;-62
2021/08/29 09:19:04;;;;;;;7.17;4.70;;;;;;;20.54;100.00;98510.89;1722499;82;20883;-61
2021/08/29 09:21:37;;;;;;;5.85;4.92;;;;;;;20.57;100.00;98500.48;1744657;81;21006;-61
2021/08/29 09:24:10;;;;;;;5.62;4.85;;;;;;;20.63;100.00;98500.99;1749238;81;21383;-61
2021/08/29 09:26:44;;;;;;;7.70;5.35;;;;;;;20.65;100.00;98492.86;1727736;81;21136;-62
2021/08/29 09:29:24;;;;;;;5.08;4.50;;;;;;;20.68;100.00;98496.23;1751050;81;21504;-61
2021/08/29 09:31:54;;;;;;;6.92;4.65;;;;;;;20.69;100.00;98531.45;1726401;81;20995;-61
2021/08/29 09:34:24;;;;;;;6.70;4.42;;;;;;;20.63;100.00;98568.46;1721110;81;20889;-61
2021/08/29 09:37:01;;;;;;;4.72;4.20;;;;;;;20.43;100.00;98579.81;1735944;81;21555;-61
2021/08/29 09:39:35;;;;;;;6.03;4.83;;;;;;;20.26;100.00;98565.55;1722769;80;21576;-61
2021/08/29 09:42:20;;;;;;;5.42;4.10;;;;;;;20.12;100.00;98559.61;1737422;81;21414;-62
2021/08/29 09:45:04;;;;;;;6.90;4.60;;;;;;;20.02;100.00;98546.33;1734326;81;20939;-63
2021/08/29 09:47:32;;;;;;;5.25;4.50;;;;;;;19.91;100.00;98539.35;1731749;81;20994;-64
2021/08/29 09:50:18;;;;;;;6.90;4.70;;;;;;;19.87;100.00;98537.31;1742958;81;20931;-61
2021/08/29 09:53:08;;;;;;;7.10;4.47;;;;;;;19.87;100.00;98529.28;1627466;86;21230;-60
2021/08/29 09:55:49;;;;;;;5.62;4.08;;;;;;;19.91;100.00;98523.30;1720113;83;21432;-61
2021/08/29 09:58:36;;;;;;;6.45;4.50;;;;;;;19.96;100.00;98511.86;1747938;81;20895;-60
2021/08/29 10:01:15;;;;;;;6.08;4.78;;;;;;;20.00;100.00;98502.72;1753492;81;21887;-60
2021/08/29 10:03:49;;;;;;;6.28;4.97;;;;;;;20.04;100.00;98498.45;1751025;81;20906;-61
2021/08/29 10:06:26;;;;;;;7.08;5.22;;;;;;;20.08;100.00;98493.79;1731692;81;21420;-62
2021/08/29 10:09:01;;;;;;;8.40;5.30;;;;;;;20.13;100.00;98497.94;1726640;81;20961;-60
2021/08/29 10:11:33;;;;;;;6.75;5.50;;;;;;;20.19;100.00;98506.58;1724422;81;20901;-61
2021/08/29 10:14:04;;;;;;;7.37;5.20;;;;;;;20.22;100.00;98490.34;1726687;81;21476;-61
2021/08/29 10:16:33;;;;;;;8.23;4.62;;;;;;;20.24;100.00;98497.81;1704775;82;20944;-61
2021/08/29 10:19:04;;;;;;;10.10;5.35;;;;;;;20.27;100.00;98515.05;1726892;82;21142;-61
2021/08/29 10:21:50;;;;;;;9.55;5.78;;;;;;;20.30;100.00;98511.73;1727875;82;20995;-62
2021/08/29 10:24:17;;;;;;;8.58;6.17;;;;;;;20.30;100.00;98502.36;1728800;81;20995;-61
2021/08/29 10:26:47;;;;;;;7.90;5.70;;;;;;;20.31;100.00;98497.39;1728445;81;21481;-61
2021/08/29 10:29:28;;;;;;;7.60;5.37;;;;;;;20.34;100.00;98505.29;1737673;82;20866;-61
2021/08/29 10:32:26;;;;;;;9.70;5.60;;;;;;;20.39;100.00;98500.56;1726384;82;21552;-62
2021/08/29 10:35:23;;;;;;;5.95;5.12;;;;;;;20.46;100.00;98498.41;1733447;81;21054;-62
2021/08/29 10:37:52;;;;;;;11.00;6.00;;;;;;;20.50;100.00;98508.47;1692393;83;20943;-62
2021/08/29 10:40:24;;;;;;;8.33;5.37;;;;;;;20.51;100.00;98514.22;1690435;82;21454;-65
2021/08/29 10:42:57;;;;;;;;;;;;;;;20.51;100.00;98513.75;1706379;83;21501;-63
2021/08/29 10:45:28;;;;;;;8.55;6.25;;;;;;;20.52;100.00;98517.29;1697159;84;21768;-62
2021/08/29 10:48:15;;;;;;;38.28;7.70;;;;;;;20.52;100.00;98519.50;1694941;83;20911;-61
2021/08/29 10:50:48;;;;;;;8.40;6.92;;;;;;;20.51;100.00;98526.28;1696384;83;20987;-61
2021/08/29 10:53:36;;;;;;;9.05;6.80;;;;;;;20.40;100.00;98516.16;1704840;83;21530;-61
2021/08/29 10:56:29;;;;;;;10.03;7.17;;;;;;;20.31;100.00;98525.52;1697619;83;21017;-62
2021/08/29 10:59:14;;;;;;;10.00;6.95;;;;;;;20.24;100.00;98526.80;1696049;84;22013;-62
2021/08/29 11:01:49;;;;;;;8.35;6.80;;;;;;;20.16;100.00;98535.73;1695835;84;20990;-62
2021/08/29 11:04:24;;;;;;;9.43;6.30;;;;;;;20.07;100.00;98536.23;1696721;83;20978;-62
2021/08/29 11:06:57;;;;;;;8.70;6.42;;;;;;;20.01;100.00;98534.76;1668425;84;20939;-62
2021/08/29 11:09:40;;;;;;;8.95;6.45;;;;;;;19.94;100.00;98522.66;1669669;85;20958;-66
2021/08/29 11:12:23;;;;;;;7.70;6.37;;;;;;;19.93;100.00;98522.27;1687715;83;21160;-61
2021/08/29 11:14:56;;;;;;;13.05;7.12;;;;;;;19.93;100.00;98518.25;1695898;83;20995;-61
2021/08/29 11:17:31;;;;;;;7.25;6.47;;;;;;;19.93;100.00;98528.95;1707141;82;21014;-62
2021/08/29 11:20:09;;;;;;;8.55;6.10;;;;;;;19.91;100.00;98516.13;1666914;84;20958;-62
2021/08/29 11:22:54;;;;;;;9.08;6.42;;;;;;;19.91;100.00;98520.14;1651196;86;20960;-61
2021/08/29 11:25:24;;;;;;;11.22;6.22;;;;;;;19.94;100.00;98531.16;1667398;84;21129;-62
2021/08/29 11:28:07;;;;;;;7.17;6.33;;;;;;;19.91;100.00;98517.47;1635145;87;21039;-61
2021/08/29 11:30:55;;;;;;;7.80;6.55;;;;;;;19.89;100.00;98501.09;1636453;87;21498;-61
2021/08/29 11:33:26;;;;;;;7.47;6.50;;;;;;;19.94;100.00;98511.08;1670515;84;20879;-60
2021/08/29 11:35:56;;;;;;;8.70;6.22;;;;;;;20.00;100.00;98511.61;1650473;86;20968;-61
2021/08/29 11:38:41;;;;;;;8.93;6.47;;;;;;;20.06;100.00;98509.94;1682745;85;21157;-61
2021/08/29 11:41:14;;;;;;;9.28;6.62;;;;;;;20.12;100.00;98519.45;1681266;84;20860;-61
2021/08/29 11:43:50;;;;;;;10.38;6.65;;;;;;;20.16;100.00;98532.19;1664454;86;21002;-62
2021/08/29 11:46:24;;;;;;;10.75;7.17;;;;;;;20.19;100.00;98526.67;1664157;85;21506;-61
2021/08/29 11:49:03;;;;;;;9.35;6.90;;;;;;;20.22;100.00;98530.52;1664530;84;20947;-62
2021/08/29 11:51:37;;;;;;;9.20;6.67;;;;;;;20.25;100.00;98516.95;1664946;85;21010;-62
2021/08/29 11:54:09;;;;;;;9.85;7.08;;;;;;;20.29;100.00;98525.20;1664781;86;20963;-62